sensor_id;sensor_type;location;lat;lon;timestamp;temperature;humidity
3190;DHT22;1606;51.946;10.558;2022-10-15T00:00:23;17.70;99.90
3190;DHT22;1606;51.946;10.558;2022-10-15T00:02:51;17.70;99.90
3190;DHT22;1606;51.946;10.558;2022-10-15T00:05:19;17.70;99.90
3190;DHT22;1606;51.946;10.558;2022-10-15T00:07:47;17.70;99.90
3190;DHT22;1606;51.946;10.558;2022-10-15T00:10:16;17.70;99.90
3190;DHT22;1606;51.946;10.558;2022-10-15T00:12:45;17.80;99.90
3190;DHT22;1606;51.946;10.558;2022-10-15T00:15:13;17.80;99.90
3190;DHT22;1606;51.946;10.558;2022-10-15T00:17:41;17.70;99.90
3190;DHT22;1606;51.946;10.558;2022-10-15T00:20:10;17.80;99.90
3190;DHT22;1606;51.946;10.558;2022-10-15T00:22:38;17.80;99.90
3190;DHT22;1606;51.946;10.558;2022-10-15T00:25:07;17.80;99.90
3190;DHT22;1606;51.946;10.558;2022-10-15T00:27:36;17.80;99.90
3190;DHT22;1606;51.946;10.558;2022-10-15T00:30:06;17.70;99.90
3190;DHT22;1606;51.946;10.558;2022-10-15T00:32:34;17.70;99.90
3190;DHT22;1606;51.946;10.558;2022-10-15T00:35:03;17.70;99.90
3190;DHT22;1606;51.946;10.558;2022-10-15T00:37:30;17.60;99.90
3190;DHT22;1606;51.946;10.558;2022-10-15T00:39:58;17.60;99.90
3190;DHT22;1606;51.946;10.558;2022-10-15T00:42:31;17.60;99.90
3190;DHT22;1606;51.946;10.558;2022-10-15T00:44:59;17.70;99.90
3190;DHT22;1606;51.946;10.558;2022-10-15T00:47:34;17.60;99.90
3190;DHT22;1606;51.946;10.558;2022-10-15T00:50:05;17.70;99.90
3190;DHT22;1606;51.946;10.558;2022-10-15T00:52:38;17.60;99.90
3190;DHT22;1606;51.946;10.558;2022-10-15T00:55:12;17.60;99.90
3190;DHT22;1606;51.946;10.558;2022-10-15T00:57:42;17.70;99.90
3190;DHT22;1606;51.946;10.558;2022-10-15T01:00:12;17.60;99.90
3190;DHT22;1606;51.946;10.558;2022-10-15T01:02:43;17.60;99.90
3190;DHT22;1606;51.946;10.558;2022-10-15T01:05:12;17.60;99.90
3190;DHT22;1606;51.946;10.558;2022-10-15T01:07:41;17.60;99.90
3190;DHT22;1606;51.946;10.558;2022-10-15T01:10:10;17.50;99.90
3190;DHT22;1606;51.946;10.558;2022-10-15T01:12:47;17.50;99.90
3190;DHT22;1606;51.946;10.558;2022-10-15T01:15:23;17.50;99.90
3190;DHT22;1606;51.946;10.558;2022-10-15T01:17:56;17.50;99.90
3190;DHT22;1606;51.946;10.558;2022-10-15T01:20:49;17.50;99.90
3190;DHT22;1606;51.946;10.558;2022-10-15T01:29:59;17.50;99.90
3190;DHT22;1606;51.946;10.558;2022-10-15T01:32:35;17.50;99.90
3190;DHT22;1606;51.946;10.558;2022-10-15T01:35:12;17.50;99.90
3190;DHT22;1606;51.946;10.558;2022-10-15T01:37:46;17.50;99.90
3190;DHT22;1606;51.946;10.558;2022-10-15T01:40:20;17.50;99.90
3190;DHT22;1606;51.946;10.558;2022-10-15T01:42:53;17.50;99.90
3190;DHT22;1606;51.946;10.558;2022-10-15T01:45:27;17.50;99.90
3190;DHT22;1606;51.946;10.558;2022-10-15T01:48:01;17.40;99.90
3190;DHT22;1606;51.946;10.558;2022-10-15T01:50:31;17.40;99.90
3190;DHT22;1606;51.946;10.558;2022-10-15T01:53:01;17.40;99.90
3190;DHT22;1606;51.946;10.558;2022-10-15T01:55:30;17.40;99.90
3190;DHT22;1606;51.946;10.558;2022-10-15T01:58:00;17.20;99.90
3190;DHT22;1606;51.946;10.558;2022-10-15T02:00:29;17.20;99.90
3190;DHT22;1606;51.946;10.558;2022-10-15T02:03:00;17.20;99.90
3190;DHT22;1606;51.946;10.558;2022-10-15T02:05:30;17.20;99.90
3190;DHT22;1606;51.946;10.558;2022-10-15T02:08:06;17.10;99.90
3190;DHT22;1606;51.946;10.558;2022-10-15T02:10:43;17.20;99.90
3190;DHT22;1606;51.946;10.558;2022-10-15T02:13:23;17.10;99.90
3190;DHT22;1606;51.946;10.558;2022-10-15T02:15:59;17.00;99.90
3190;DHT22;1606;51.946;10.558;2022-10-15T02:18:37;17.20;99.90
3190;DHT22;1606;51.946;10.558;2022-10-15T02:21:10;17.20;99.90
3190;DHT22;1606;51.946;10.558;2022-10-15T02:23:44;17.20;99.90
3190;DHT22;1606;51.946;10.558;2022-10-15T02:26:14;17.10;99.90
3190;DHT22;1606;51.946;10.558;2022-10-15T02:28:45;17.00;99.90
3190;DHT22;1606;51.946;10.558;2022-10-15T02:31:18;16.90;99.90
3190;DHT22;1606;51.946;10.558;2022-10-15T02:33:49;16.80;99.90
3190;DHT22;1606;51.946;10.558;2022-10-15T02:36:18;16.70;99.90
3190;DHT22;1606;51.946;10.558;2022-10-15T02:38:47;16.60;99.90
3190;DHT22;1606;51.946;10.558;2022-10-15T02:41:17;16.70;99.90
3190;DHT22;1606;51.946;10.558;2022-10-15T02:43:45;16.90;99.90
3190;DHT22;1606;51.946;10.558;2022-10-15T02:46:14;16.90;99.90
3190;DHT22;1606;51.946;10.558;2022-10-15T02:48:42;16.80;99.90
3190;DHT22;1606;51.946;10.558;2022-10-15T02:51:11;16.60;99.90
3190;DHT22;1606;51.946;10.558;2022-10-15T02:53:39;16.70;99.90
3190;DHT22;1606;51.946;10.558;2022-10-15T02:56:07;16.70;99.90
3190;DHT22;1606;51.946;10.558;2022-10-15T02:58:35;16.80;99.90
3190;DHT22;1606;51.946;10.558;2022-10-15T03:01:03;16.70;99.90
3190;DHT22;1606;51.946;10.558;2022-10-15T03:03:31;16.80;99.90
3190;DHT22;1606;51.946;10.558;2022-10-15T03:05:59;16.80;99.90
3190;DHT22;1606;51.946;10.558;2022-10-15T03:08:28;16.80;99.90
3190;DHT22;1606;51.946;10.558;2022-10-15T03:10:58;16.60;99.90
3190;DHT22;1606;51.946;10.558;2022-10-15T03:13:26;16.50;99.90
3190;DHT22;1606;51.946;10.558;2022-10-15T03:15:54;16.50;99.90
3190;DHT22;1606;51.946;10.558;2022-10-15T03:18:22;16.50;99.90
3190;DHT22;1606;51.946;10.558;2022-10-15T03:20:53;16.60;99.90
3190;DHT22;1606;51.946;10.558;2022-10-15T03:23:21;16.60;99.90
3190;DHT22;1606;51.946;10.558;2022-10-15T03:25:51;16.50;99.90
3190;DHT22;1606;51.946;10.558;2022-10-15T03:28:20;16.50;99.90
3190;DHT22;1606;51.946;10.558;2022-10-15T03:30:48;16.40;99.90
3190;DHT22;1606;51.946;10.558;2022-10-15T03:33:16;16.50;99.90
3190;DHT22;1606;51.946;10.558;2022-10-15T03:35:47;16.50;99.90
3190;DHT22;1606;51.946;10.558;2022-10-15T03:38:15;16.50;99.90
3190;DHT22;1606;51.946;10.558;2022-10-15T03:40:43;16.40;99.90
3190;DHT22;1606;51.946;10.558;2022-10-15T03:43:13;16.30;99.90
3190;DHT22;1606;51.946;10.558;2022-10-15T03:45:41;16.40;99.90
3190;DHT22;1606;51.946;10.558;2022-10-15T03:48:08;16.50;99.90
3190;DHT22;1606;51.946;10.558;2022-10-15T03:50:36;16.60;99.90
3190;DHT22;1606;51.946;10.558;2022-10-15T03:53:05;16.60;99.90
3190;DHT22;1606;51.946;10.558;2022-10-15T03:55:33;16.70;99.90
3190;DHT22;1606;51.946;10.558;2022-10-15T03:58:00;16.70;99.90
3190;DHT22;1606;51.946;10.558;2022-10-15T04:00:30;16.90;99.90
3190;DHT22;1606;51.946;10.558;2022-10-15T04:02:57;16.80;99.90
3190;DHT22;1606;51.946;10.558;2022-10-15T04:05:25;16.90;99.90
3190;DHT22;1606;51.946;10.558;2022-10-15T04:07:53;16.80;99.90
3190;DHT22;1606;51.946;10.558;2022-10-15T04:10:21;16.70;99.90
3190;DHT22;1606;51.946;10.558;2022-10-15T04:12:49;16.50;99.90
3190;DHT22;1606;51.946;10.558;2022-10-15T04:15:17;16.50;99.90
3190;DHT22;1606;51.946;10.558;2022-10-15T04:17:46;16.50;99.90
3190;DHT22;1606;51.946;10.558;2022-10-15T04:20:14;16.20;99.90
3190;DHT22;1606;51.946;10.558;2022-10-15T04:22:42;16.10;99.90
3190;DHT22;1606;51.946;10.558;2022-10-15T04:25:10;16.20;99.90
3190;DHT22;1606;51.946;10.558;2022-10-15T04:27:38;16.40;99.90
3190;DHT22;1606;51.946;10.558;2022-10-15T04:30:06;16.50;99.90
3190;DHT22;1606;51.946;10.558;2022-10-15T04:32:34;16.50;99.90
3190;DHT22;1606;51.946;10.558;2022-10-15T04:35:04;16.50;99.90
3190;DHT22;1606;51.946;10.558;2022-10-15T04:37:32;16.50;99.90
3190;DHT22;1606;51.946;10.558;2022-10-15T04:40:00;16.50;99.90
3190;DHT22;1606;51.946;10.558;2022-10-15T04:42:29;16.50;99.90
3190;DHT22;1606;51.946;10.558;2022-10-15T04:44:57;16.60;99.90
3190;DHT22;1606;51.946;10.558;2022-10-15T04:47:24;16.70;99.90
3190;DHT22;1606;51.946;10.558;2022-10-15T04:49:52;16.70;99.90
3190;DHT22;1606;51.946;10.558;2022-10-15T04:52:21;16.70;99.90
3190;DHT22;1606;51.946;10.558;2022-10-15T04:54:49;16.70;99.90
3190;DHT22;1606;51.946;10.558;2022-10-15T04:57:17;16.70;99.90
3190;DHT22;1606;51.946;10.558;2022-10-15T04:59:45;16.70;99.90
3190;DHT22;1606;51.946;10.558;2022-10-15T05:02:13;16.60;99.90
3190;DHT22;1606;51.946;10.558;2022-10-15T05:04:40;16.60;99.90
3190;DHT22;1606;51.946;10.558;2022-10-15T05:07:08;16.60;99.90
3190;DHT22;1606;51.946;10.558;2022-10-15T05:09:37;16.60;99.90
3190;DHT22;1606;51.946;10.558;2022-10-15T05:12:11;16.50;99.90
3190;DHT22;1606;51.946;10.558;2022-10-15T05:14:39;16.50;99.90
3190;DHT22;1606;51.946;10.558;2022-10-15T05:17:08;16.50;99.90
3190;DHT22;1606;51.946;10.558;2022-10-15T05:19:35;16.50;99.90
3190;DHT22;1606;51.946;10.558;2022-10-15T05:22:03;16.60;99.90
3190;DHT22;1606;51.946;10.558;2022-10-15T05:24:31;16.60;99.90
3190;DHT22;1606;51.946;10.558;2022-10-15T05:27:00;16.70;99.90
3190;DHT22;1606;51.946;10.558;2022-10-15T05:29:29;16.70;99.90
3190;DHT22;1606;51.946;10.558;2022-10-15T05:31:56;16.70;99.90
3190;DHT22;1606;51.946;10.558;2022-10-15T05:34:24;16.70;99.90
3190;DHT22;1606;51.946;10.558;2022-10-15T05:36:55;16.70;99.90
3190;DHT22;1606;51.946;10.558;2022-10-15T05:39:23;16.70;99.90
3190;DHT22;1606;51.946;10.558;2022-10-15T05:41:51;16.80;99.90
3190;DHT22;1606;51.946;10.558;2022-10-15T05:44:21;16.80;99.90
3190;DHT22;1606;51.946;10.558;2022-10-15T05:46:48;16.70;99.90
3190;DHT22;1606;51.946;10.558;2022-10-15T05:49:16;16.60;99.90
3190;DHT22;1606;51.946;10.558;2022-10-15T05:51:44;16.60;99.90
3190;DHT22;1606;51.946;10.558;2022-10-15T05:54:12;16.70;99.90
3190;DHT22;1606;51.946;10.558;2022-10-15T05:56:40;16.70;99.90
3190;DHT22;1606;51.946;10.558;2022-10-15T05:59:08;16.60;99.90
3190;DHT22;1606;51.946;10.558;2022-10-15T06:01:37;16.60;99.90
3190;DHT22;1606;51.946;10.558;2022-10-15T06:04:05;16.70;99.90
3190;DHT22;1606;51.946;10.558;2022-10-15T06:06:33;16.70;99.90
3190;DHT22;1606;51.946;10.558;2022-10-15T06:09:01;16.70;99.90
3190;DHT22;1606;51.946;10.558;2022-10-15T06:11:28;16.70;99.90
3190;DHT22;1606;51.946;10.558;2022-10-15T06:13:56;16.50;99.90
3190;DHT22;1606;51.946;10.558;2022-10-15T06:16:24;16.60;99.90
3190;DHT22;1606;51.946;10.558;2022-10-15T06:18:53;16.60;99.90
3190;DHT22;1606;51.946;10.558;2022-10-15T06:21:21;16.60;99.90
3190;DHT22;1606;51.946;10.558;2022-10-15T06:23:49;16.60;99.90
3190;DHT22;1606;51.946;10.558;2022-10-15T06:26:17;16.70;99.90
3190;DHT22;1606;51.946;10.558;2022-10-15T06:28:44;16.60;99.90
3190;DHT22;1606;51.946;10.558;2022-10-15T06:31:12;16.60;99.90
3190;DHT22;1606;51.946;10.558;2022-10-15T06:33:40;16.70;99.90
3190;DHT22;1606;51.946;10.558;2022-10-15T06:36:10;16.70;99.90
3190;DHT22;1606;51.946;10.558;2022-10-15T06:38:39;16.70;99.90
3190;DHT22;1606;51.946;10.558;2022-10-15T06:41:09;16.70;99.90
3190;DHT22;1606;51.946;10.558;2022-10-15T06:43:37;16.80;99.90
3190;DHT22;1606;51.946;10.558;2022-10-15T06:46:05;16.70;99.90
3190;DHT22;1606;51.946;10.558;2022-10-15T06:48:33;16.80;99.90
3190;DHT22;1606;51.946;10.558;2022-10-15T06:51:02;16.70;99.90
3190;DHT22;1606;51.946;10.558;2022-10-15T06:53:31;16.70;99.90
3190;DHT22;1606;51.946;10.558;2022-10-15T06:56:00;16.80;99.90
3190;DHT22;1606;51.946;10.558;2022-10-15T06:58:28;16.70;99.90
3190;DHT22;1606;51.946;10.558;2022-10-15T07:00:59;16.80;99.90
3190;DHT22;1606;51.946;10.558;2022-10-15T07:03:27;16.80;99.90
3190;DHT22;1606;51.946;10.558;2022-10-15T07:05:55;16.70;99.90
3190;DHT22;1606;51.946;10.558;2022-10-15T07:08:24;16.80;99.90
3190;DHT22;1606;51.946;10.558;2022-10-15T07:10:53;16.90;99.90
3190;DHT22;1606;51.946;10.558;2022-10-15T07:13:21;16.70;99.90
3190;DHT22;1606;51.946;10.558;2022-10-15T07:15:48;16.50;99.90
3190;DHT22;1606;51.946;10.558;2022-10-15T07:18:19;16.60;99.90
3190;DHT22;1606;51.946;10.558;2022-10-15T07:20:47;16.70;99.90
3190;DHT22;1606;51.946;10.558;2022-10-15T07:23:15;16.80;99.90
3190;DHT22;1606;51.946;10.558;2022-10-15T07:25:43;16.90;99.90
3190;DHT22;1606;51.946;10.558;2022-10-15T07:28:12;17.00;99.90
3190;DHT22;1606;51.946;10.558;2022-10-15T07:30:40;17.00;99.90
3190;DHT22;1606;51.946;10.558;2022-10-15T07:33:07;17.10;99.90
3190;DHT22;1606;51.946;10.558;2022-10-15T07:35:36;17.10;99.90
3190;DHT22;1606;51.946;10.558;2022-10-15T07:38:04;17.20;99.90
3190;DHT22;1606;51.946;10.558;2022-10-15T07:40:32;17.30;99.90
3190;DHT22;1606;51.946;10.558;2022-10-15T07:43:00;17.50;99.90
3190;DHT22;1606;51.946;10.558;2022-10-15T07:45:29;17.60;99.90
3190;DHT22;1606;51.946;10.558;2022-10-15T07:47:57;17.50;99.90
3190;DHT22;1606;51.946;10.558;2022-10-15T07:50:24;17.60;99.90
3190;DHT22;1606;51.946;10.558;2022-10-15T07:52:57;17.70;99.90
3190;DHT22;1606;51.946;10.558;2022-10-15T07:55:25;17.70;99.90
3190;DHT22;1606;51.946;10.558;2022-10-15T07:57:55;17.80;99.90
3190;DHT22;1606;51.946;10.558;2022-10-15T08:00:23;17.90;99.90
3190;DHT22;1606;51.946;10.558;2022-10-15T08:02:53;17.90;99.90
3190;DHT22;1606;51.946;10.558;2022-10-15T08:05:21;17.90;99.90
3190;DHT22;1606;51.946;10.558;2022-10-15T08:07:48;17.90;99.90
3190;DHT22;1606;51.946;10.558;2022-10-15T08:10:16;18.00;99.90
3190;DHT22;1606;51.946;10.558;2022-10-15T08:12:44;17.90;99.90
3190;DHT22;1606;51.946;10.558;2022-10-15T08:15:12;18.00;99.90
3190;DHT22;1606;51.946;10.558;2022-10-15T08:17:40;18.10;99.90
3190;DHT22;1606;51.946;10.558;2022-10-15T08:20:10;18.10;99.90
3190;DHT22;1606;51.946;10.558;2022-10-15T08:22:38;18.30;99.90
3190;DHT22;1606;51.946;10.558;2022-10-15T08:25:07;18.40;99.90
3190;DHT22;1606;51.946;10.558;2022-10-15T08:27:35;18.50;99.90
3190;DHT22;1606;51.946;10.558;2022-10-15T08:30:04;18.50;99.90
3190;DHT22;1606;51.946;10.558;2022-10-15T08:32:32;18.60;99.90
3190;DHT22;1606;51.946;10.558;2022-10-15T08:34:59;18.60;99.90
3190;DHT22;1606;51.946;10.558;2022-10-15T08:37:28;18.60;99.90
3190;DHT22;1606;51.946;10.558;2022-10-15T08:39:56;18.70;99.90
3190;DHT22;1606;51.946;10.558;2022-10-15T08:42:30;18.80;99.90
3190;DHT22;1606;51.946;10.558;2022-10-15T08:45:02;18.90;99.90
3190;DHT22;1606;51.946;10.558;2022-10-15T08:47:34;18.80;99.90
3190;DHT22;1606;51.946;10.558;2022-10-15T08:50:14;18.80;99.90
3190;DHT22;1606;51.946;10.558;2022-10-15T08:52:47;18.80;99.90
3190;DHT22;1606;51.946;10.558;2022-10-15T08:55:17;18.80;99.90
3190;DHT22;1606;51.946;10.558;2022-10-15T08:57:50;18.70;99.90
3190;DHT22;1606;51.946;10.558;2022-10-15T09:00:21;18.80;99.90
3190;DHT22;1606;51.946;10.558;2022-10-15T09:02:57;19.10;99.90
3190;DHT22;1606;51.946;10.558;2022-10-15T09:05:36;19.30;99.90
3190;DHT22;1606;51.946;10.558;2022-10-15T09:08:15;19.40;99.90
3190;DHT22;1606;51.946;10.558;2022-10-15T09:10:47;19.20;99.90
3190;DHT22;1606;51.946;10.558;2022-10-15T09:13:23;19.20;99.90
3190;DHT22;1606;51.946;10.558;2022-10-15T09:15:55;19.40;99.90
3190;DHT22;1606;51.946;10.558;2022-10-15T09:18:29;19.40;99.90
3190;DHT22;1606;51.946;10.558;2022-10-15T09:20:59;19.70;99.90
3190;DHT22;1606;51.946;10.558;2022-10-15T09:23:32;19.70;99.90
3190;DHT22;1606;51.946;10.558;2022-10-15T09:26:04;19.80;99.90
3190;DHT22;1606;51.946;10.558;2022-10-15T09:28:39;19.60;99.90
3190;DHT22;1606;51.946;10.558;2022-10-15T09:31:12;19.70;99.90
3190;DHT22;1606;51.946;10.558;2022-10-15T09:33:45;19.50;99.90
3190;DHT22;1606;51.946;10.558;2022-10-15T09:36:23;19.50;99.90
3190;DHT22;1606;51.946;10.558;2022-10-15T09:39:03;19.50;99.90
3190;DHT22;1606;51.946;10.558;2022-10-15T09:41:48;19.80;99.90
3190;DHT22;1606;51.946;10.558;2022-10-15T09:44:21;19.60;99.90
3190;DHT22;1606;51.946;10.558;2022-10-15T09:46:50;19.30;99.90
3190;DHT22;1606;51.946;10.558;2022-10-15T09:49:22;19.50;99.90
3190;DHT22;1606;51.946;10.558;2022-10-15T09:51:57;19.80;99.90
3190;DHT22;1606;51.946;10.558;2022-10-15T09:54:35;20.00;99.90
3190;DHT22;1606;51.946;10.558;2022-10-15T09:57:08;20.10;99.90
3190;DHT22;1606;51.946;10.558;2022-10-15T09:59:36;20.20;99.90
3190;DHT22;1606;51.946;10.558;2022-10-15T10:02:16;20.30;99.90
3190;DHT22;1606;51.946;10.558;2022-10-15T10:04:45;20.10;99.90
3190;DHT22;1606;51.946;10.558;2022-10-15T10:07:28;19.90;99.90
3190;DHT22;1606;51.946;10.558;2022-10-15T10:10:00;19.90;99.90
3190;DHT22;1606;51.946;10.558;2022-10-15T10:12:32;20.10;99.90
3190;DHT22;1606;51.946;10.558;2022-10-15T10:15:04;19.90;99.90
3190;DHT22;1606;51.946;10.558;2022-10-15T10:17:32;20.00;99.90
3190;DHT22;1606;51.946;10.558;2022-10-15T10:20:14;20.00;99.90
3190;DHT22;1606;51.946;10.558;2022-10-15T10:22:45;20.00;99.90
3190;DHT22;1606;51.946;10.558;2022-10-15T10:25:30;20.00;99.90
3190;DHT22;1606;51.946;10.558;2022-10-15T10:28:04;20.00;99.90
3190;DHT22;1606;51.946;10.558;2022-10-15T10:30:35;20.00;99.90
3190;DHT22;1606;51.946;10.558;2022-10-15T10:33:04;20.00;99.90
3190;DHT22;1606;51.946;10.558;2022-10-15T10:35:43;20.20;99.90
3190;DHT22;1606;51.946;10.558;2022-10-15T10:38:18;20.40;99.90
3190;DHT22;1606;51.946;10.558;2022-10-15T10:40:51;20.50;99.90
3190;DHT22;1606;51.946;10.558;2022-10-15T10:43:24;20.50;99.90
3190;DHT22;1606;51.946;10.558;2022-10-15T10:45:54;20.60;99.90
3190;DHT22;1606;51.946;10.558;2022-10-15T10:48:24;20.70;99.90
3190;DHT22;1606;51.946;10.558;2022-10-15T10:51:03;20.70;99.90
3190;DHT22;1606;51.946;10.558;2022-10-15T10:53:45;20.60;99.90
3190;DHT22;1606;51.946;10.558;2022-10-15T10:56:16;20.50;99.90
3190;DHT22;1606;51.946;10.558;2022-10-15T10:58:44;20.60;99.90
3190;DHT22;1606;51.946;10.558;2022-10-15T11:01:12;20.70;99.90
3190;DHT22;1606;51.946;10.558;2022-10-15T11:03:44;20.60;99.90
3190;DHT22;1606;51.946;10.558;2022-10-15T11:06:42;20.40;99.90
3190;DHT22;1606;51.946;10.558;2022-10-15T11:12:42;21.00;99.90
3190;DHT22;1606;51.946;10.558;2022-10-15T11:15:19;20.90;99.90
3190;DHT22;1606;51.946;10.558;2022-10-15T11:17:57;21.00;99.90
3190;DHT22;1606;51.946;10.558;2022-10-15T11:20:32;21.10;99.90
3190;DHT22;1606;51.946;10.558;2022-10-15T11:23:31;21.00;99.90
3190;DHT22;1606;51.946;10.558;2022-10-15T11:26:09;20.90;99.90
3190;DHT22;1606;51.946;10.558;2022-10-15T11:28:50;20.80;99.90
3190;DHT22;1606;51.946;10.558;2022-10-15T11:31:29;20.80;99.90
3190;DHT22;1606;51.946;10.558;2022-10-15T11:34:27;20.60;99.90
3190;DHT22;1606;51.946;10.558;2022-10-15T11:37:11;20.40;99.90
3190;DHT22;1606;51.946;10.558;2022-10-15T11:39:53;20.20;99.90
3190;DHT22;1606;51.946;10.558;2022-10-15T11:42:30;19.70;99.90
3190;DHT22;1606;51.946;10.558;2022-10-15T11:45:15;19.90;99.90
3190;DHT22;1606;51.946;10.558;2022-10-15T11:47:50;20.10;99.90
3190;DHT22;1606;51.946;10.558;2022-10-15T11:50:29;20.30;99.90
3190;DHT22;1606;51.946;10.558;2022-10-15T11:53:27;20.40;99.90
3190;DHT22;1606;51.946;10.558;2022-10-15T11:56:03;20.50;99.90
3190;DHT22;1606;51.946;10.558;2022-10-15T11:58:34;20.60;99.90
3190;DHT22;1606;51.946;10.558;2022-10-15T12:01:09;20.90;99.90
3190;DHT22;1606;51.946;10.558;2022-10-15T12:03:44;21.10;99.90
3190;DHT22;1606;51.946;10.558;2022-10-15T12:06:18;21.10;99.90
3190;DHT22;1606;51.946;10.558;2022-10-15T12:08:48;21.20;99.90
3190;DHT22;1606;51.946;10.558;2022-10-15T12:11:26;21.00;99.90
3190;DHT22;1606;51.946;10.558;2022-10-15T12:13:58;20.90;99.90
3190;DHT22;1606;51.946;10.558;2022-10-15T12:16:34;21.20;99.90
3190;DHT22;1606;51.946;10.558;2022-10-15T12:19:11;21.20;99.90
3190;DHT22;1606;51.946;10.558;2022-10-15T12:21:43;21.40;99.90
3190;DHT22;1606;51.946;10.558;2022-10-15T12:27:25;21.20;99.90
3190;DHT22;1606;51.946;10.558;2022-10-15T12:30:21;21.40;99.90
3190;DHT22;1606;51.946;10.558;2022-10-15T12:32:51;21.50;99.90
3190;DHT22;1606;51.946;10.558;2022-10-15T12:35:29;21.80;99.90
3190;DHT22;1606;51.946;10.558;2022-10-15T12:38:09;21.80;99.90
3190;DHT22;1606;51.946;10.558;2022-10-15T12:40:39;21.80;99.90
3190;DHT22;1606;51.946;10.558;2022-10-15T12:43:13;21.70;99.90
3190;DHT22;1606;51.946;10.558;2022-10-15T12:45:49;21.40;99.90
3190;DHT22;1606;51.946;10.558;2022-10-15T12:48:28;21.30;99.90
3190;DHT22;1606;51.946;10.558;2022-10-15T12:54:34;21.30;99.90
3190;DHT22;1606;51.946;10.558;2022-10-15T13:00:35;21.50;99.90
3190;DHT22;1606;51.946;10.558;2022-10-15T13:03:23;21.40;99.90
3190;DHT22;1606;51.946;10.558;2022-10-15T13:05:51;21.50;99.90
3190;DHT22;1606;51.946;10.558;2022-10-15T13:08:22;21.70;99.90
3190;DHT22;1606;51.946;10.558;2022-10-15T13:10:53;21.90;99.90
3190;DHT22;1606;51.946;10.558;2022-10-15T13:13:23;22.10;99.90
3190;DHT22;1606;51.946;10.558;2022-10-15T13:15:57;22.20;99.90
3190;DHT22;1606;51.946;10.558;2022-10-15T13:18:27;22.20;99.90
3190;DHT22;1606;51.946;10.558;2022-10-15T13:20:56;22.10;99.90
3190;DHT22;1606;51.946;10.558;2022-10-15T13:23:26;22.20;99.90
3190;DHT22;1606;51.946;10.558;2022-10-15T13:26:16;22.00;99.90
3190;DHT22;1606;51.946;10.558;2022-10-15T13:28:45;21.70;99.90
3190;DHT22;1606;51.946;10.558;2022-10-15T13:31:26;21.50;99.90
3190;DHT22;1606;51.946;10.558;2022-10-15T13:33:59;21.40;99.90
3190;DHT22;1606;51.946;10.558;2022-10-15T13:36:32;21.30;99.90
3190;DHT22;1606;51.946;10.558;2022-10-15T13:39:03;21.40;99.90
3190;DHT22;1606;51.946;10.558;2022-10-15T13:41:34;21.20;99.90
3190;DHT22;1606;51.946;10.558;2022-10-15T13:44:03;21.20;99.90
3190;DHT22;1606;51.946;10.558;2022-10-15T13:46:35;21.50;99.90
3190;DHT22;1606;51.946;10.558;2022-10-15T13:49:11;21.60;99.90
3190;DHT22;1606;51.946;10.558;2022-10-15T13:51:41;21.60;99.90
3190;DHT22;1606;51.946;10.558;2022-10-15T13:54:13;21.60;99.90
3190;DHT22;1606;51.946;10.558;2022-10-15T13:56:43;21.40;99.90
3190;DHT22;1606;51.946;10.558;2022-10-15T13:59:17;21.30;99.90
3190;DHT22;1606;51.946;10.558;2022-10-15T14:01:48;21.10;99.90
3190;DHT22;1606;51.946;10.558;2022-10-15T14:04:20;20.80;99.90
3190;DHT22;1606;51.946;10.558;2022-10-15T14:06:53;20.70;99.90
3190;DHT22;1606;51.946;10.558;2022-10-15T14:09:28;20.80;99.90
3190;DHT22;1606;51.946;10.558;2022-10-15T14:11:57;20.80;99.90
3190;DHT22;1606;51.946;10.558;2022-10-15T14:14:32;21.00;99.90
3190;DHT22;1606;51.946;10.558;2022-10-15T14:17:04;21.30;99.90
3190;DHT22;1606;51.946;10.558;2022-10-15T14:19:33;21.40;99.90
3190;DHT22;1606;51.946;10.558;2022-10-15T14:22:02;21.50;99.90
3190;DHT22;1606;51.946;10.558;2022-10-15T14:24:32;21.50;99.90
3190;DHT22;1606;51.946;10.558;2022-10-15T14:27:02;21.40;99.90
3190;DHT22;1606;51.946;10.558;2022-10-15T14:29:36;21.50;99.90
3190;DHT22;1606;51.946;10.558;2022-10-15T14:32:24;21.40;99.90
3190;DHT22;1606;51.946;10.558;2022-10-15T14:34:53;21.10;99.90
3190;DHT22;1606;51.946;10.558;2022-10-15T14:37:29;21.20;99.90
3190;DHT22;1606;51.946;10.558;2022-10-15T14:40:08;21.20;99.90
3190;DHT22;1606;51.946;10.558;2022-10-15T14:42:40;21.40;99.90
3190;DHT22;1606;51.946;10.558;2022-10-15T14:45:17;21.20;99.90
3190;DHT22;1606;51.946;10.558;2022-10-15T14:47:48;20.90;99.90
3190;DHT22;1606;51.946;10.558;2022-10-15T14:50:18;20.70;99.90
3190;DHT22;1606;51.946;10.558;2022-10-15T14:52:48;20.80;99.90
3190;DHT22;1606;51.946;10.558;2022-10-15T14:55:26;20.90;99.90
3190;DHT22;1606;51.946;10.558;2022-10-15T14:58:00;20.80;99.90
3190;DHT22;1606;51.946;10.558;2022-10-15T15:00:31;20.80;99.90
3190;DHT22;1606;51.946;10.558;2022-10-15T15:03:04;20.70;99.90
3190;DHT22;1606;51.946;10.558;2022-10-15T15:05:44;20.60;99.90
3190;DHT22;1606;51.946;10.558;2022-10-15T15:08:12;20.80;99.90
3190;DHT22;1606;51.946;10.558;2022-10-15T15:10:40;20.90;99.90
3190;DHT22;1606;51.946;10.558;2022-10-15T15:13:10;20.90;99.90
3190;DHT22;1606;51.946;10.558;2022-10-15T15:15:39;21.10;99.90
3190;DHT22;1606;51.946;10.558;2022-10-15T15:18:10;21.10;99.90
3190;DHT22;1606;51.946;10.558;2022-10-15T15:20:39;21.20;99.90
3190;DHT22;1606;51.946;10.558;2022-10-15T15:23:09;21.30;99.90
3190;DHT22;1606;51.946;10.558;2022-10-15T15:25:39;21.20;99.90
3190;DHT22;1606;51.946;10.558;2022-10-15T15:28:11;21.20;99.90
3190;DHT22;1606;51.946;10.558;2022-10-15T15:30:40;20.90;99.90
3190;DHT22;1606;51.946;10.558;2022-10-15T15:33:13;20.90;99.90
3190;DHT22;1606;51.946;10.558;2022-10-15T15:35:42;21.10;99.90
3190;DHT22;1606;51.946;10.558;2022-10-15T15:38:17;21.10;99.90
3190;DHT22;1606;51.946;10.558;2022-10-15T15:40:45;21.00;99.90
3190;DHT22;1606;51.946;10.558;2022-10-15T15:43:14;21.10;99.90
3190;DHT22;1606;51.946;10.558;2022-10-15T15:45:42;20.90;99.90
3190;DHT22;1606;51.946;10.558;2022-10-15T15:48:12;20.90;99.90
3190;DHT22;1606;51.946;10.558;2022-10-15T15:50:40;21.00;99.90
3190;DHT22;1606;51.946;10.558;2022-10-15T15:53:08;20.90;99.90
3190;DHT22;1606;51.946;10.558;2022-10-15T15:55:38;20.90;99.90
3190;DHT22;1606;51.946;10.558;2022-10-15T15:58:06;20.90;99.90
3190;DHT22;1606;51.946;10.558;2022-10-15T16:00:33;21.00;99.90
3190;DHT22;1606;51.946;10.558;2022-10-15T16:03:01;21.00;99.90
3190;DHT22;1606;51.946;10.558;2022-10-15T16:05:30;20.90;99.90
3190;DHT22;1606;51.946;10.558;2022-10-15T16:07:58;20.60;99.90
3190;DHT22;1606;51.946;10.558;2022-10-15T16:10:26;20.60;99.90
3190;DHT22;1606;51.946;10.558;2022-10-15T16:12:54;20.70;99.90
3190;DHT22;1606;51.946;10.558;2022-10-15T16:15:22;20.70;99.90
3190;DHT22;1606;51.946;10.558;2022-10-15T16:17:50;20.70;99.90
3190;DHT22;1606;51.946;10.558;2022-10-15T16:20:18;20.50;99.90
3190;DHT22;1606;51.946;10.558;2022-10-15T16:22:49;20.40;99.90
3190;DHT22;1606;51.946;10.558;2022-10-15T16:25:18;20.30;99.90
3190;DHT22;1606;51.946;10.558;2022-10-15T16:27:46;20.30;99.90
3190;DHT22;1606;51.946;10.558;2022-10-15T16:30:15;20.20;99.90